Terminal Aerodrome Forecast
Issued by NWS

Home | Current Version | Previous Version | Text Only | Print | Product List | Glossary On
Versions: 1 2 3 4 5 6 7 8 9 10 11 12 13 14 15 16
389
FTPA31 PHFO 171739
TAFHNY
TAF
PHNY 171739Z 1718/1818 05019G30KT P6SM SCT020
     FM172200 05025G37KT P6SM SCT020
     FM180700 05015G25KT P6SM FEW020=

USA.gov is the U.S. government's official web portal to all federal, state and local government web resources and services.